TimeAKST,TemperatureF,Dew PointF,Humidity,Sea Level PressureIn,VisibilityMPH,Wind Direction,Wind SpeedMPH,Gust SpeedMPH,PrecipitationIn,Events,Conditions,WindDirDegrees,DateUTC
12:08 AM,21.2,17.6,86,29.44,10.0,Calm,Calm,-,N/A,,Overcast,0,2012-02-28 09:08:00
12:53 AM,21.9,19.0,89,29.46,10.0,Variable,5.8,-,N/A,,Overcast,0,2012-02-28 09:53:00
1:53 AM,19.9,16.0,85,29.47,10.0,WNW,5.8,-,0.00,,Overcast,300,2012-02-28 10:53:00
2:26 AM,17.6,15.8,93,29.48,9.0,Calm,Calm,-,0.00,Snow,Light Snow,0,2012-02-28 11:26:00
3:49 AM,19.4,15.8,86,29.50,2.5,Calm,Calm,-,0.00,Snow,Light Snow,0,2012-02-28 12:49:00
3:53 AM,19.0,15.1,85,29.52,2.0,Calm,Calm,-,0.00,Snow,Light Snow,0,2012-02-28 12:53:00
4:05 AM,19.4,15.8,86,29.50,1.8,Calm,Calm,-,0.00,Snow,Light Snow,0,2012-02-28 13:05:00
4:53 AM,17.1,15.1,92,29.54,1.5,NE,4.6,-,0.01,Snow,Light Snow,50,2012-02-28 13:53:00
5:19 AM,15.8,14.0,93,29.53,1.5,NNE,4.6,-,0.00,Snow,Light Snow,30,2012-02-28 14:19:00
5:28 AM,15.8,14.0,93,29.54,1.2,NNE,5.8,-,0.00,Snow,Light Snow,30,2012-02-28 14:28:00
5:53 AM,16.0,12.9,88,29.56,1.5,NE,3.5,-,0.01,Snow,Light Snow,40,2012-02-28 14:53:00
6:17 AM,15.8,12.2,86,29.56,2.0,Calm,Calm,-,0.00,Snow,Light Snow,0,2012-02-28 15:17:00
6:27 AM,15.8,12.2,86,29.56,1.8,Calm,Calm,-,0.00,Snow,Light Snow,0,2012-02-28 15:27:00
6:39 AM,15.8,12.2,86,29.56,1.8,Calm,Calm,-,0.00,Snow,Light Snow,0,2012-02-28 15:39:00
6:53 AM,15.1,12.9,91,29.58,2.5,Calm,Calm,-,0.00,Snow,Light Snow,0,2012-02-28 15:53:00
7:01 AM,15.8,12.2,86,29.57,4.0,Calm,Calm,-,0.00,Snow,Light Snow,0,2012-02-28 16:01:00
7:16 AM,15.8,12.2,86,29.57,2.5,Calm,Calm,-,0.00,Snow,Light Snow,0,2012-02-28 16:16:00
7:53 AM,15.1,12.9,91,29.60,9.0,Calm,Calm,-,0.00,,Overcast,0,2012-02-28 16:53:00
8:53 AM,15.1,14.0,95,29.61,10.0,Calm,Calm,-,0.00,,Overcast,0,2012-02-28 17:53:00
9:53 AM,16.0,12.9,88,29.62,5.0,Calm,Calm,-,0.00,Snow,Light Snow,0,2012-02-28 18:53:00
10:10 AM,15.8,12.2,86,29.61,9.0,NW,3.5,-,0.00,,Overcast,320,2012-02-28 19:10:00
10:53 AM,15.1,10.9,84,29.63,7.0,NNE,3.5,-,0.00,,Overcast,20,2012-02-28 19:53:00
11:53 AM,17.1,10.9,77,29.64,10.0,North,3.5,-,N/A,,Overcast,350,2012-02-28 20:53:00
12:53 PM,18.0,12.0,78,29.62,10.0,North,5.8,-,N/A,,Overcast,360,2012-02-28 21:53:00
1:20 PM,19.4,12.2,74,29.62,10.0,NNW,5.8,-,N/A,,Overcast,340,2012-02-28 22:20:00
1:53 PM,19.0,10.9,71,29.63,10.0,NNW,5.8,-,N/A,,Overcast,340,2012-02-28 22:53:00
2:50 PM,19.4,10.4,68,29.61,10.0,NNW,6.9,-,N/A,,Overcast,340,2012-02-28 23:50:00
2:53 PM,19.0,10.9,71,29.62,10.0,NNW,6.9,-,N/A,,Overcast,340,2012-02-28 23:53:00
3:53 PM,19.0,12.9,77,29.64,10.0,WNW,5.8,-,N/A,,Overcast,300,2012-02-29 00:53:00
4:53 PM,19.0,12.9,77,29.65,10.0,WNW,3.5,-,N/A,,Overcast,300,2012-02-29 01:53:00
5:53 PM,18.0,12.9,81,29.64,10.0,Calm,Calm,-,N/A,,Overcast,0,2012-02-29 02:53:00
6:53 PM,18.0,14.0,84,29.63,10.0,Calm,Calm,-,N/A,,Overcast,0,2012-02-29 03:53:00
7:53 PM,17.1,14.0,88,29.62,10.0,Calm,Calm,-,N/A,,Overcast,0,2012-02-29 04:53:00
8:53 PM,16.0,14.0,92,29.63,10.0,Calm,Calm,-,N/A,,Overcast,0,2012-02-29 05:53:00
9:53 PM,16.0,12.9,88,29.64,9.0,Calm,Calm,-,N/A,,Overcast,0,2012-02-29 06:53:00
10:53 PM,17.1,15.1,92,29.66,3.0,Calm,Calm,-,0.00,Snow,Light Snow,0,2012-02-29 07:53:00
11:49 PM,15.8,14.0,93,29.63,6.0,East,3.5,-,0.00,Snow,Light Snow,80,2012-02-29 08:49:00
11:53 PM,16.0,14.0,92,29.64,6.0,East,3.5,-,0.00,Snow,Light Snow,90,2012-02-29 08:53:00